Time;durP1;ratioP1;P1;durP2;ratioP2;P2;SDS_P1;SDS_P2;PMS_P1;PMS_P2;Temp;Humidity;BMP_temperature;BMP_pressure;BME280_temperature;BME280_humidity;BME280_pressure;Samples;Min_cycle;Max_cycle;Signal;HPM_P1;HPM_P2
2023/09/15 00:00:20;;;;;;;1.37;1.27;;;;;;;;;;5077563;28;20230;-66
2023/09/15 00:02:48;;;;;;;2.00;1.50;;;;;;;;;;5077698;28;20650;-66
2023/09/15 00:05:16;;;;;;;3.07;2.03;;;;;;;;;;5077812;28;20202;-66
2023/09/15 00:07:45;;;;;;;2.73;1.17;;;;;;;;;;5077412;28;20259;-66
2023/09/15 00:10:14;;;;;;;1.53;1.40;;;;;;;;;;5077297;28;20697;-67
2023/09/15 00:12:46;;;;;;;1.63;1.53;;;;;;;;;;5077888;28;20244;-67
2023/09/15 00:15:15;;;;;;;5.97;1.53;;;;;;;;;;5077369;28;20573;-67
2023/09/15 00:17:43;;;;;;;1.67;1.57;;;;;;;;;;5077811;28;20209;-66
2023/09/15 00:20:13;;;;;;;2.23;2.03;;;;;;;;;;5077337;28;20232;-66
2023/09/15 00:22:42;;;;;;;2.60;1.70;;;;;;;;;;5077481;28;20297;-67
2023/09/15 00:25:10;;;;;;;1.70;1.57;;;;;;;;;;5077485;28;20201;-66
2023/09/15 00:27:38;;;;;;;2.33;1.63;;;;;;;;;;5077823;28;20209;-66
2023/09/15 00:30:08;;;;;;;2.17;1.80;;;;;;;;;;5077524;28;20346;-66
2023/09/15 00:32:37;;;;;;;4.13;1.80;;;;;;;;;;5077359;28;20205;-66
2023/09/15 00:35:05;;;;;;;3.63;1.53;;;;;;;;;;5077226;28;20267;-66
2023/09/15 00:37:33;;;;;;;1.77;1.67;;;;;;;;;;5077140;28;20616;-66
2023/09/15 00:40:01;;;;;;;2.00;1.40;;;;;;;;;;5077222;28;20217;-67
2023/09/15 00:42:29;;;;;;;2.67;1.70;;;;;;;;;;5077341;28;20264;-66
2023/09/15 00:45:02;;;;;;;2.00;1.70;;;;;;;;;;5077465;28;20213;-67
2023/09/15 00:47:32;;;;;;;4.80;1.90;;;;;;;;;;5077177;28;20742;-66
2023/09/15 00:50:00;;;;;;;1.83;1.73;;;;;;;;;;5077135;28;20236;-67
2023/09/15 00:52:29;;;;;;;2.57;1.60;;;;;;;;;;5077091;28;20220;-67
2023/09/15 00:54:57;;;;;;;4.10;1.80;;;;;;;;;;5077020;28;20217;-67
2023/09/15 00:57:26;;;;;;;2.10;1.70;;;;;;;;;;5080739;28;20666;-67
2023/09/15 00:59:54;;;;;;;3.57;1.63;;;;;;;;;;5080823;28;20217;-66
2023/09/15 01:02:22;;;;;;;5.40;1.73;;;;;;;;;;5080804;28;20661;-66
2023/09/15 01:04:52;;;;;;;3.00;1.80;;;;;;;;;;5080812;28;20628;-66
2023/09/15 01:07:19;;;;;;;1.53;1.43;;;;;;;;;;5080679;28;20608;-66
2023/09/15 01:09:48;;;;;;;1.80;1.70;;;;;;;;;;5080802;28;20209;-67
2023/09/15 01:12:16;;;;;;;2.50;1.70;;;;;;;;;;5080569;28;20633;-66
2023/09/15 01:14:45;;;;;;;1.80;1.70;;;;;;;;;;5080669;28;20613;-66
2023/09/15 01:17:16;;;;;;;3.13;1.93;;;;;;;;;;5080763;28;20225;-66
2023/09/15 01:19:56;;;;;;;2.53;1.60;;;;;;;;;;5080903;28;20215;-66
2023/09/15 01:22:32;;;;;;;2.57;1.57;;;;;;;;;;5080339;28;20266;-67
2023/09/15 01:25:16;;;;;;;2.53;1.73;;;;;;;;;;5080611;28;20212;-67
2023/09/15 01:28:08;;;;;;;1.60;1.50;;;;;;;;;;5080708;28;20246;-67
2023/09/15 01:30:39;;;;;;;4.67;1.43;;;;;;;;;;5073962;28;20221;-67
2023/09/15 01:33:09;;;;;;;2.83;1.70;;;;;;;;;;5077023;28;20205;-66
2023/09/15 01:35:38;;;;;;;2.50;1.60;;;;;;;;;;5080195;28;20233;-67
2023/09/15 01:38:06;;;;;;;2.37;1.30;;;;;;;;;;5079734;28;20212;-67
2023/09/15 01:40:34;;;;;;;3.47;1.60;;;;;;;;;;5080195;28;20256;-67
2023/09/15 01:43:03;;;;;;;1.77;1.67;;;;;;;;;;5080307;28;20211;-67
2023/09/15 01:45:31;;;;;;;2.40;1.23;;;;;;;;;;5080451;28;20211;-66
2023/09/15 01:48:00;;;;;;;1.60;1.33;;;;;;;;;;5080210;28;20209;-66
2023/09/15 01:50:30;;;;;;;4.37;1.83;;;;;;;;;;5080150;28;20228;-66
2023/09/15 01:52:58;;;;;;;1.37;1.30;;;;;;;;;;5079587;28;20211;-66
2023/09/15 01:55:27;;;;;;;2.13;1.93;;;;;;;;;;5079594;28;20251;-67
2023/09/15 01:57:55;;;;;;;1.83;1.60;;;;;;;;;;5080103;28;20212;-66
2023/09/15 02:00:24;;;;;;;2.00;1.80;;;;;;;;;;5079858;28;20250;-66
2023/09/15 02:02:52;;;;;;;3.43;1.87;;;;;;;;;;5080092;28;20241;-66
2023/09/15 02:05:23;;;;;;;2.10;1.90;;;;;;;;;;5079861;28;20204;-67
2023/09/15 02:07:52;;;;;;;2.10;1.60;;;;;;;;;;5079178;28;20213;-67
2023/09/15 02:10:20;;;;;;;6.03;1.87;;;;;;;;;;5079734;28;20228;-66
2023/09/15 02:12:48;;;;;;;2.40;2.03;;;;;;;;;;5079814;28;20208;-66
2023/09/15 02:15:17;;;;;;;2.30;2.10;;;;;;;;;;5079635;28;20207;-66
2023/09/15 02:17:45;;;;;;;2.17;1.57;;;;;;;;;;5079275;28;20755;-66
2023/09/15 02:20:13;;;;;;;2.27;1.70;;;;;;;;;;5079516;28;20223;-67
2023/09/15 02:22:43;;;;;;;1.53;1.43;;;;;;;;;;5079083;28;20574;-66
2023/09/15 02:25:11;;;;;;;1.63;1.53;;;;;;;;;;5079363;28;20208;-67
2023/09/15 02:27:39;;;;;;;5.13;2.20;;;;;;;;;;5079238;28;20575;-67
2023/09/15 02:30:08;;;;;;;3.23;1.80;;;;;;;;;;5078904;28;20576;-66
2023/09/15 02:32:36;;;;;;;3.47;2.10;;;;;;;;;;5079137;28;20210;-66
2023/09/15 02:35:05;;;;;;;2.40;1.90;;;;;;;;;;5079187;28;20211;-66
2023/09/15 02:37:33;;;;;;;3.23;1.87;;;;;;;;;;5078977;28;20231;-66
2023/09/15 02:40:03;;;;;;;3.80;1.87;;;;;;;;;;5078785;28;20227;-66
2023/09/15 02:42:33;;;;;;;2.70;1.90;;;;;;;;;;5078920;28;20281;-67
2023/09/15 02:45:01;;;;;;;1.90;1.70;;;;;;;;;;5079106;28;20268;-66
2023/09/15 02:47:29;;;;;;;1.67;1.57;;;;;;;;;;5079067;28;20206;-67
2023/09/15 02:49:58;;;;;;;2.00;1.77;;;;;;;;;;5078619;28;20631;-67
2023/09/15 02:52:26;;;;;;;1.80;1.70;;;;;;;;;;5078461;28;20671;-66
2023/09/15 02:54:54;;;;;;;4.27;1.73;;;;;;;;;;5078550;28;20232;-66
2023/09/15 02:57:25;;;;;;;2.73;1.80;;;;;;;;;;5078445;28;20242;-67
2023/09/15 02:59:53;;;;;;;3.30;2.13;;;;;;;;;;5078715;28;20208;-66
2023/09/15 03:02:22;;;;;;;3.27;2.27;;;;;;;;;;5078764;28;20215;-67
2023/09/15 03:04:49;;;;;;;3.30;1.90;;;;;;;;;;5078641;28;20234;-66
2023/09/15 03:07:18;;;;;;;3.13;2.00;;;;;;;;;;5078189;28;20208;-66
2023/09/15 03:09:46;;;;;;;2.87;2.13;;;;;;;;;;5077975;28;20667;-66
2023/09/15 03:12:14;;;;;;;1.80;1.70;;;;;;;;;;5077914;28;20685;-66
2023/09/15 03:14:44;;;;;;;3.53;1.90;;;;;;;;;;5078070;28;20665;-66
2023/09/15 03:17:12;;;;;;;7.37;2.10;;;;;;;;;;5078500;28;20220;-66
2023/09/15 03:19:39;;;;;;;1.70;1.57;;;;;;;;;;5077270;28;20260;-67
2023/09/15 03:22:11;;;;;;;2.80;2.00;;;;;;;;;;5077625;28;20211;-67
2023/09/15 03:24:39;;;;;;;7.53;2.20;;;;;;;;;;5077898;28;20207;-66
2023/09/15 03:27:07;;;;;;;2.33;2.00;;;;;;;;;;5077985;28;20200;-66
2023/09/15 03:29:36;;;;;;;4.70;1.97;;;;;;;;;;5075815;28;20205;-66
2023/09/15 03:32:07;;;;;;;2.80;2.13;;;;;;;;;;5072335;28;20205;-66
2023/09/15 03:34:38;;;;;;;3.40;2.10;;;;;;;;;;5077841;28;20200;-66
2023/09/15 03:37:06;;;;;;;2.53;2.30;;;;;;;;;;5075130;28;20621;-67
2023/09/15 03:39:34;;;;;;;3.50;2.33;;;;;;;;;;5077784;28;20220;-71
2023/09/15 03:42:02;;;;;;;5.23;3.53;;;;;;;;;;5077846;28;20320;-71
2023/09/15 03:44:30;;;;;;;2.97;2.43;;;;;;;;;;5078194;28;20215;-72
2023/09/15 03:46:58;;;;;;;5.03;2.67;;;;;;;;;;5077809;28;20677;-72
2023/09/15 03:49:27;;;;;;;3.50;2.37;;;;;;;;;;5078087;28;20243;-71
2023/09/15 03:51:56;;;;;;;4.27;2.17;;;;;;;;;;5077542;28;20592;-72
2023/09/15 03:54:24;;;;;;;2.73;2.50;;;;;;;;;;5077561;28;20252;-69
2023/09/15 03:56:53;;;;;;;3.17;2.10;;;;;;;;;;5077451;28;20242;-69
2023/09/15 03:59:21;;;;;;;5.27;2.30;;;;;;;;;;5077588;28;20266;-69
2023/09/15 04:01:49;;;;;;;2.47;2.07;;;;;;;;;;5077499;28;20237;-69
2023/09/15 04:04:17;;;;;;;6.90;2.90;;;;;;;;;;5077905;28;20216;-69
2023/09/15 04:06:46;;;;;;;3.13;2.10;;;;;;;;;;5077935;28;20216;-69
2023/09/15 04:09:14;;;;;;;5.10;2.50;;;;;;;;;;5077489;28;20201;-68
2023/09/15 04:11:43;;;;;;;2.20;1.90;;;;;;;;;;5077422;28;20226;-68
2023/09/15 04:14:11;;;;;;;2.23;1.90;;;;;;;;;;5077782;28;20215;-69
2023/09/15 04:16:39;;;;;;;3.47;2.13;;;;;;;;;;5074462;28;20806;-69
2023/09/15 04:19:07;;;;;;;6.47;4.37;;;;;;;;;;5065447;28;20199;-70
2023/09/15 04:21:38;;;;;;;2.57;2.10;;;;;;;;;;5077162;28;20654;-70
2023/09/15 04:24:08;;;;;;;3.20;2.03;;;;;;;;;;5073992;28;20205;-68
2023/09/15 04:26:36;;;;;;;3.03;2.27;;;;;;;;;;5076940;28;20669;-69
2023/09/15 04:29:04;;;;;;;6.50;2.33;;;;;;;;;;5077802;28;20201;-68
2023/09/15 04:31:32;;;;;;;2.77;2.57;;;;;;;;;;5075032;28;20769;-71
2023/09/15 04:34:00;;;;;;;2.83;1.90;;;;;;;;;;5081782;28;20297;-69
2023/09/15 04:36:28;;;;;;;4.37;2.00;;;;;;;;;;5081739;28;20205;-69
2023/09/15 04:38:56;;;;;;;5.30;2.20;;;;;;;;;;5080871;28;20229;-68
2023/09/15 04:41:26;;;;;;;2.50;2.20;;;;;;;;;;5081466;28;20233;-68
2023/09/15 04:43:55;;;;;;;4.37;2.07;;;;;;;;;;5081493;28;20209;-68
2023/09/15 04:46:23;;;;;;;2.97;1.83;;;;;;;;;;5081220;28;20201;-71
2023/09/15 04:48:51;;;;;;;4.97;2.13;;;;;;;;;;5081485;28;20232;-71
2023/09/15 04:51:19;;;;;;;2.60;2.00;;;;;;;;;;5081036;28;20252;-70
2023/09/15 04:53:47;;;;;;;5.10;2.40;;;;;;;;;;5080655;28;20568;-71
2023/09/15 04:56:15;;;;;;;2.17;1.70;;;;;;;;;;5081049;28;20247;-72
2023/09/15 04:58:45;;;;;;;2.70;2.10;;;;;;;;;;5081064;28;20275;-72
2023/09/15 05:01:16;;;;;;;5.00;2.23;;;;;;;;;;5081071;28;20229;-72
2023/09/15 05:03:45;;;;;;;2.40;1.97;;;;;;;;;;5081140;28;20630;-66
2023/09/15 05:06:13;;;;;;;2.77;2.10;;;;;;;;;;5081130;28;20201;-66
2023/09/15 05:08:41;;;;;;;2.60;1.93;;;;;;;;;;5080585;28;20209;-71
2023/09/15 05:11:09;;;;;;;2.53;1.83;;;;;;;;;;5080657;28;20231;-70
2023/09/15 05:13:37;;;;;;;3.33;1.90;;;;;;;;;;5080628;28;20676;-70
2023/09/15 05:16:07;;;;;;;1.90;1.47;;;;;;;;;;5080811;28;20220;-71
2023/09/15 05:18:35;;;;;;;2.17;1.90;;;;;;;;;;5074564;28;20611;-71
2023/09/15 05:21:04;;;;;;;4.83;2.20;;;;;;;;;;5080645;28;20233;-71
2023/09/15 05:23:32;;;;;;;6.80;2.10;;;;;;;;;;5080295;28;20216;-71
2023/09/15 05:26:00;;;;;;;3.50;1.87;;;;;;;;;;5080652;28;20216;-71
2023/09/15 05:28:28;;;;;;;1.90;1.80;;;;;;;;;;5080630;28;20232;-71
2023/09/15 05:30:59;;;;;;;2.30;1.70;;;;;;;;;;5080835;28;20295;-71
2023/09/15 05:33:29;;;;;;;2.17;1.70;;;;;;;;;;5080637;28;20545;-71
2023/09/15 05:35:57;;;;;;;1.73;1.63;;;;;;;;;;5080229;28;20218;-71
2023/09/15 05:38:25;;;;;;;4.90;2.33;;;;;;;;;;5079637;28;21067;-71
2023/09/15 05:40:53;;;;;;;2.53;1.97;;;;;;;;;;5079641;28;20312;-71
2023/09/15 05:43:21;;;;;;;5.73;2.27;;;;;;;;;;5080285;28;20207;-71
2023/09/15 05:45:50;;;;;;;6.40;4.73;;;;;;;;;;5080265;28;20204;-70
2023/09/15 05:48:22;;;;;;;3.47;2.10;;;;;;;;;;5079944;28;20240;-71
2023/09/15 05:50:52;;;;;;;3.33;2.00;;;;;;;;;;5080122;28;20619;-71
2023/09/15 05:53:21;;;;;;;5.60;2.20;;;;;;;;;;5080062;28;20205;-71
2023/09/15 05:55:49;;;;;;;4.90;1.90;;;;;;;;;;5079946;28;20240;-71
2023/09/15 05:58:17;;;;;;;3.40;2.03;;;;;;;;;;5079827;28;20233;-71
2023/09/15 06:00:45;;;;;;;4.70;1.90;;;;;;;;;;5080287;28;20235;-71
2023/09/15 06:03:13;;;;;;;2.33;2.13;;;;;;;;;;5079756;28;20215;-71
2023/09/15 06:05:41;;;;;;;2.70;2.40;;;;;;;;;;5080109;28;20236;-71
2023/09/15 06:08:10;;;;;;;3.47;2.20;;;;;;;;;;5079531;28;20573;-71
2023/09/15 06:10:40;;;;;;;2.40;1.87;;;;;;;;;;5079523;28;20230;-71
2023/09/15 06:13:09;;;;;;;4.30;2.20;;;;;;;;;;5079900;28;20237;-71
2023/09/15 06:15:37;;;;;;;2.90;2.27;;;;;;;;;;5079454;28;20735;-71
2023/09/15 06:18:05;;;;;;;4.03;1.93;;;;;;;;;;5079608;28;20201;-71
2023/09/15 06:20:33;;;;;;;3.60;2.00;;;;;;;;;;5079262;28;20277;-71
2023/09/15 06:23:01;;;;;;;2.17;1.97;;;;;;;;;;5079287;28;20213;-71
2023/09/15 06:25:31;;;;;;;5.10;2.30;;;;;;;;;;5079314;28;20209;-71
2023/09/15 06:28:00;;;;;;;3.93;2.23;;;;;;;;;;5079650;28;20247;-71
2023/09/15 06:30:47;;;;;;;2.33;2.13;;;;;;;;;;5079091;28;20699;-71
2023/09/15 06:33:16;;;;;;;4.00;2.50;;;;;;;;;;5079487;28;20243;-71
2023/09/15 06:35:45;;;;;;;5.70;2.87;;;;;;;;;;5079086;28;20204;-71
2023/09/15 06:38:13;;;;;;;3.03;2.50;;;;;;;;;;5078858;28;20215;-69
2023/09/15 06:40:42;;;;;;;5.80;2.63;;;;;;;;;;5078926;28;20224;-70
2023/09/15 06:43:10;;;;;;;6.67;3.07;;;;;;;;;;5079744;28;20232;-70
2023/09/15 06:45:38;;;;;;;4.20;2.70;;;;;;;;;;5078984;28;20651;-70
2023/09/15 06:48:06;;;;;;;9.07;3.60;;;;;;;;;;5078749;28;20613;-71
2023/09/15 06:50:34;;;;;;;5.73;2.87;;;;;;;;;;5078822;28;20577;-71
2023/09/15 06:53:03;;;;;;;4.10;2.73;;;;;;;;;;5078507;28;20217;-71
2023/09/15 06:55:32;;;;;;;5.33;3.17;;;;;;;;;;5078770;28;20234;-69
2023/09/15 06:58:02;;;;;;;4.27;3.03;;;;;;;;;;5078497;28;20217;-70
2023/09/15 07:00:30;;;;;;;4.13;2.87;;;;;;;;;;5078721;28;20230;-69
2023/09/15 07:02:58;;;;;;;6.20;3.10;;;;;;;;;;5078729;28;20289;-70
2023/09/15 07:05:26;;;;;;;5.50;3.47;;;;;;;;;;5078807;28;20206;-70
2023/09/15 07:07:54;;;;;;;6.07;3.20;;;;;;;;;;5078041;28;20592;-69
2023/09/15 07:10:22;;;;;;;4.53;3.10;;;;;;;;;;5078305;28;20640;-69
2023/09/15 07:12:51;;;;;;;9.50;3.27;;;;;;;;;;5078411;28;20214;-70
2023/09/15 07:15:20;;;;;;;3.67;3.20;;;;;;;;;;5078320;28;20206;-70
2023/09/15 07:17:48;;;;;;;5.93;3.20;;;;;;;;;;5078129;28;20207;-70
2023/09/15 07:20:16;;;;;;;4.90;2.93;;;;;;;;;;5078091;28;20243;-69
2023/09/15 07:22:45;;;;;;;4.87;3.10;;;;;;;;;;5077899;28;20211;-69
2023/09/15 07:25:13;;;;;;;9.77;3.37;;;;;;;;;;5078192;28;20213;-70
2023/09/15 07:27:42;;;;;;;8.33;3.93;;;;;;;;;;5078333;28;20205;-69
2023/09/15 07:30:12;;;;;;;7.00;4.60;;;;;;;;;;5078178;28;20228;-71
2023/09/15 07:32:42;;;;;;;10.70;5.57;;;;;;;;;;5078374;28;20210;-71
2023/09/15 07:35:11;;;;;;;9.13;5.20;;;;;;;;;;5077934;28;20593;-71
2023/09/15 07:37:39;;;;;;;14.20;5.73;;;;;;;;;;5078096;28;20228;-69
2023/09/15 07:40:08;;;;;;;11.43;5.03;;;;;;;;;;5077586;28;20252;-71
2023/09/15 07:42:37;;;;;;;11.53;5.10;;;;;;;;;;5078152;28;20216;-71
2023/09/15 07:45:05;;;;;;;16.20;5.70;;;;;;;;;;5077915;28;20206;-71
2023/09/15 07:47:34;;;;;;;8.37;4.43;;;;;;;;;;5078081;28;21137;-71
2023/09/15 07:50:04;;;;;;;6.47;3.30;;;;;;;;;;5078034;28;20234;-71
2023/09/15 07:52:32;;;;;;;5.00;2.37;;;;;;;;;;5077825;28;20241;-71
2023/09/15 07:55:00;;;;;;;5.27;2.77;;;;;;;;;;5077558;28;20659;-72
2023/09/15 07:57:30;;;;;;;3.60;2.63;;;;;;;;;;5077624;28;20290;-72
2023/09/15 07:59:58;;;;;;;6.67;2.70;;;;;;;;;;5077732;28;20263;-72
2023/09/15 08:02:28;;;;;;;6.47;2.73;;;;;;;;;;5077677;28;20671;-71
2023/09/15 08:04:56;;;;;;;5.87;3.63;;;;;;;;;;5077219;28;20236;-71
2023/09/15 08:07:25;;;;;;;4.20;2.97;;;;;;;;;;5077521;28;20212;-71
2023/09/15 08:09:53;;;;;;;3.57;2.60;;;;;;;;;;5077656;28;20209;-72
2023/09/15 08:12:22;;;;;;;5.57;2.80;;;;;;;;;;5077584;28;20592;-71
2023/09/15 08:14:50;;;;;;;4.73;2.70;;;;;;;;;;5077825;28;20267;-72
2023/09/15 08:17:18;;;;;;;5.27;3.13;;;;;;;;;;5077615;28;20216;-72
2023/09/15 08:20:00;;;;;;;7.83;2.97;;;;;;;;;;5077333;28;20715;-71
2023/09/15 08:22:32;;;;;;;2.97;2.67;;;;;;;;;;5077259;28;20207;-70
2023/09/15 08:25:03;;;;;;;4.40;2.70;;;;;;;;;;5077655;28;20210;-71
2023/09/15 08:27:31;;;;;;;4.73;2.60;;;;;;;;;;5077684;28;20212;-71
2023/09/15 08:29:59;;;;;;;7.23;2.73;;;;;;;;;;5077543;28;20274;-71
2023/09/15 08:32:27;;;;;;;2.83;2.60;;;;;;;;;;5077619;28;20206;-71
2023/09/15 08:34:56;;;;;;;3.37;2.40;;;;;;;;;;5077674;28;20246;-71
2023/09/15 08:37:24;;;;;;;4.77;2.50;;;;;;;;;;5063807;28;20263;-71
2023/09/15 08:39:53;;;;;;;4.97;3.27;;;;;;;;;;5076851;28;20230;-72
2023/09/15 08:42:24;;;;;;;4.20;3.10;;;;;;;;;;5077324;28;20737;-71
2023/09/15 08:44:52;;;;;;;7.40;2.97;;;;;;;;;;5077677;28;20210;-71
2023/09/15 08:47:20;;;;;;;4.50;3.60;;;;;;;;;;5077549;28;20211;-71
2023/09/15 08:49:49;;;;;;;8.17;3.70;;;;;;;;;;5077504;28;20201;-71
2023/09/15 08:52:18;;;;;;;5.33;3.53;;;;;;;;;;5077450;28;20213;-72
2023/09/15 08:54:46;;;;;;;5.33;3.13;;;;;;;;;;5076959;28;20215;-71
2023/09/15 08:57:16;;;;;;;5.53;3.50;;;;;;;;;;5077017;28;20245;-71
2023/09/15 08:59:45;;;;;;;4.00;3.30;;;;;;;;;;5076920;28;20254;-71
2023/09/15 09:02:13;;;;;;;6.87;3.30;;;;;;;;;;5077450;28;20205;-71
2023/09/15 09:04:42;;;;;;;3.17;2.87;;;;;;;;;;5077039;28;20662;-70
2023/09/15 09:07:10;;;;;;;3.20;2.90;;;;;;;;;;5077089;28;20233;-70
2023/09/15 09:09:40;;;;;;;4.00;3.33;;;;;;;;;;5076797;28;20693;-70
2023/09/15 09:12:08;;;;;;;7.00;3.37;;;;;;;;;;5077328;28;20621;-70
2023/09/15 09:14:38;;;;;;;5.50;3.23;;;;;;;;;;5077128;28;20574;-70
2023/09/15 09:17:07;;;;;;;3.20;2.87;;;;;;;;;;5078810;28;20235;-70
2023/09/15 09:19:36;;;;;;;7.83;4.00;;;;;;;;;;5080723;28;20225;-70
2023/09/15 09:22:04;;;;;;;6.93;3.33;;;;;;;;;;5080476;28;20209;-70
2023/09/15 09:24:32;;;;;;;6.67;3.30;;;;;;;;;;5080379;28;20666;-70
2023/09/15 09:27:00;;;;;;;4.27;2.97;;;;;;;;;;5080368;28;20573;-69
2023/09/15 09:29:33;;;;;;;6.50;3.40;;;;;;;;;;5080870;28;20312;-70
2023/09/15 09:32:03;;;;;;;5.93;3.63;;;;;;;;;;5080269;28;20246;-70
2023/09/15 09:34:31;;;;;;;4.93;3.13;;;;;;;;;;5080514;28;20202;-70
2023/09/15 09:37:14;;;;;;;3.60;3.30;;;;;;;;;;5079816;28;20597;-70
2023/09/15 09:39:44;;;;;;;5.70;3.10;;;;;;;;;;5080058;28;20202;-71
2023/09/15 09:42:12;;;;;;;4.07;3.20;;;;;;;;;;5080387;28;20604;-71
2023/09/15 09:44:40;;;;;;;3.30;3.00;;;;;;;;;;5080169;28;20668;-71
2023/09/15 09:47:10;;;;;;;3.00;2.70;;;;;;;;;;5080357;28;20203;-71
2023/09/15 09:49:41;;;;;;;3.57;3.03;;;;;;;;;;5080084;28;20223;-71
2023/09/15 09:52:09;;;;;;;4.03;2.97;;;;;;;;;;5079635;28;20211;-70
2023/09/15 09:54:37;;;;;;;3.60;3.00;;;;;;;;;;5080102;28;20203;-70
2023/09/15 09:57:06;;;;;;;3.10;2.83;;;;;;;;;;5079848;28;20577;-70
2023/09/15 09:59:36;;;;;;;4.93;3.30;;;;;;;;;;5080064;28;20213;-70
2023/09/15 10:02:05;;;;;;;5.60;3.10;;;;;;;;;;5079834;28;20650;-70
2023/09/15 10:04:35;;;;;;;5.07;3.23;;;;;;;;;;5079964;28;20213;-70
2023/09/15 10:07:04;;;;;;;4.63;2.90;;;;;;;;;;5079552;28;20575;-70
2023/09/15 10:09:32;;;;;;;3.20;2.90;;;;;;;;;;5079804;28;20209;-70
2023/09/15 10:12:02;;;;;;;2.93;2.73;;;;;;;;;;5080111;28;20317;-70
2023/09/15 10:14:31;;;;;;;3.10;2.80;;;;;;;;;;5079792;28;20206;-71
2023/09/15 10:16:59;;;;;;;6.40;3.13;;;;;;;;;;5079442;28;20690;-71
2023/09/15 10:19:27;;;;;;;4.20;3.10;;;;;;;;;;5079043;28;20232;-71
2023/09/15 10:21:57;;;;;;;3.03;2.73;;;;;;;;;;5079351;28;20238;-71
2023/09/15 10:24:27;;;;;;;3.70;3.40;;;;;;;;;;5079652;28;20201;-70
2023/09/15 10:26:55;;;;;;;3.53;3.10;;;;;;;;;;5079250;28;20663;-70
2023/09/15 10:29:29;;;;;;;4.73;3.43;;;;;;;;;;5080048;28;20212;-70
2023/09/15 10:31:59;;;;;;;2.97;2.77;;;;;;;;;;5079233;28;20595;-71
2023/09/15 10:34:27;;;;;;;3.33;3.00;;;;;;;;;;5079263;28;20210;-71
2023/09/15 10:36:59;;;;;;;3.33;3.03;;;;;;;;;;5079021;28;20210;-70
2023/09/15 10:39:35;;;;;;;2.90;2.60;;;;;;;;;;5079320;28;20237;-70
2023/09/15 10:42:07;;;;;;;3.23;2.93;;;;;;;;;;5077436;28;20236;-70
2023/09/15 10:44:35;;;;;;;3.03;2.83;;;;;;;;;;5078980;28;20613;-70
2023/09/15 10:47:14;;;;;;;3.23;2.93;;;;;;;;;;5078926;28;20219;-70
2023/09/15 10:49:48;;;;;;;4.23;2.70;;;;;;;;;;5079024;28;20207;-69
2023/09/15 10:52:18;;;;;;;3.63;2.60;;;;;;;;;;5078840;28;20258;-70
2023/09/15 10:54:49;;;;;;;3.43;3.13;;;;;;;;;;5078561;28;20215;-69
2023/09/15 10:57:18;;;;;;;3.67;3.20;;;;;;;;;;5078611;28;20243;-70
2023/09/15 10:59:46;;;;;;;4.90;3.20;;;;;;;;;;5078762;28;20208;-69
2023/09/15 11:02:14;;;;;;;8.00;2.97;;;;;;;;;;5078655;28;20285;-70
2023/09/15 11:04:42;;;;;;;2.97;2.60;;;;;;;;;;5078682;28;20213;-70
2023/09/15 11:07:10;;;;;;;3.43;3.13;;;;;;;;;;5078502;28;20207;-70
2023/09/15 11:09:42;;;;;;;8.63;2.80;;;;;;;;;;5078226;28;20660;-69
2023/09/15 11:12:12;;;;;;;2.87;2.60;;;;;;;;;;5078626;28;20208;-69
2023/09/15 11:14:40;;;;;;;3.87;3.30;;;;;;;;;;5078452;28;20259;-70
2023/09/15 11:17:08;;;;;;;5.53;3.65;;;;;;;;;;5078308;28;20263;-71
2023/09/15 11:19:37;;;;;;;3.10;2.78;;;;;;;;;;5078341;28;20291;-69
2023/09/15 11:22:05;;;;;;;3.63;2.47;;;;;;;;;;5078189;28;20226;-70
2023/09/15 11:24:33;;;;;;;3.28;2.97;;;;;;;;;;5078393;28;20217;-70
2023/09/15 11:27:03;;;;;;;5.03;2.80;;;;;;;;;;5078082;28;20257;-70
2023/09/15 11:29:32;;;;;;;3.42;2.65;;;;;;;;;;5078318;28;20201;-70
2023/09/15 11:32:00;;;;;;;2.80;2.50;;;;;;;;;;5078144;28;20248;-70
2023/09/15 11:34:29;;;;;;;4.30;2.77;;;;;;;;;;5078286;28;20244;-70
2023/09/15 11:36:58;;;;;;;2.47;2.27;;;;;;;;;;5077896;28;20211;-69
2023/09/15 11:39:28;;;;;;;2.70;2.50;;;;;;;;;;5077108;28;20202;-71
2023/09/15 11:41:57;;;;;;;2.70;2.50;;;;;;;;;;5075759;28;20273;-70
2023/09/15 11:44:29;;;;;;;3.07;2.50;;;;;;;;;;5078145;28;20208;-71
2023/09/15 11:46:59;;;;;;;5.20;2.63;;;;;;;;;;5078083;28;20284;-70
2023/09/15 11:49:27;;;;;;;2.22;2.13;;;;;;;;;;5077870;28;20210;-70
2023/09/15 11:51:56;;;;;;;3.72;2.40;;;;;;;;;;5077494;28;20269;-70
2023/09/15 11:54:24;;;;;;;2.43;2.23;;;;;;;;;;5077577;28;20723;-70
2023/09/15 11:56:54;;;;;;;2.90;2.37;;;;;;;;;;5077801;28;20266;-70
2023/09/15 11:59:24;;;;;;;2.13;2.03;;;;;;;;;;5077515;28;20751;-71
2023/09/15 12:01:58;;;;;;;4.80;2.63;;;;;;;;;;5077812;28;20251;-69
2023/09/15 12:04:27;;;;;;;2.90;2.70;;;;;;;;;;5077637;28;20565;-70
2023/09/15 12:06:55;;;;;;;2.72;2.53;;;;;;;;;;5077700;28;20236;-71
2023/09/15 12:09:24;;;;;;;3.73;2.40;;;;;;;;;;5077447;28;20223;-70
2023/09/15 12:11:53;;;;;;;2.30;2.10;;;;;;;;;;5077789;28;20222;-71
2023/09/15 12:14:21;;;;;;;3.03;2.20;;;;;;;;;;5077644;28;20236;-69
2023/09/15 12:16:49;;;;;;;2.70;2.50;;;;;;;;;;5077688;28;20208;-70
2023/09/15 12:19:18;;;;;;;3.10;2.80;;;;;;;;;;5077438;28;20296;-70
2023/09/15 12:21:50;;;;;;;2.70;2.50;;;;;;;;;;5077433;28;20238;-70
2023/09/15 12:24:20;;;;;;;3.77;2.53;;;;;;;;;;5077617;28;20218;-69
2023/09/15 12:26:48;;;;;;;3.10;2.17;;;;;;;;;;5077659;28;20236;-71
2023/09/15 12:29:17;;;;;;;3.45;2.42;;;;;;;;;;5077426;28;20302;-70
2023/09/15 12:31:45;;;;;;;4.57;2.27;;;;;;;;;;5077543;28;20236;-70
2023/09/15 12:34:19;;;;;;;3.92;2.40;;;;;;;;;;5077618;28;20227;-70
2023/09/15 12:36:51;;;;;;;2.30;2.10;;;;;;;;;;5077234;28;20218;-71
2023/09/15 12:39:19;;;;;;;3.23;2.30;;;;;;;;;;5077259;28;20204;-71
2023/09/15 12:41:58;;;;;;;3.92;2.10;;;;;;;;;;5076967;28;20231;-71
2023/09/15 12:44:40;;;;;;;4.60;2.20;;;;;;;;;;5077425;28;20213;-70
2023/09/15 12:47:08;;;;;;;3.90;2.70;;;;;;;;;;5077276;28;20229;-69
2023/09/15 12:49:36;;;;;;;2.88;2.30;;;;;;;;;;5077016;28;20300;-71
2023/09/15 12:52:06;;;;;;;2.60;2.50;;;;;;;;;;5080675;28;20212;-70
2023/09/15 12:54:34;;;;;;;2.45;2.25;;;;;;;;;;5080815;28;20258;-70
2023/09/15 12:57:02;;;;;;;3.72;2.88;;;;;;;;;;5080891;28;20322;-70
2023/09/15 12:59:31;;;;;;;3.13;2.47;;;;;;;;;;5080943;28;20234;-70
2023/09/15 13:01:59;;;;;;;2.97;2.58;;;;;;;;;;5080729;28;20235;-71
2023/09/15 13:04:27;;;;;;;2.05;1.95;;;;;;;;;;5080976;28;20211;-70
2023/09/15 13:06:56;;;;;;;2.95;2.13;;;;;;;;;;5080509;28;20256;-69
2023/09/15 13:09:27;;;;;;;3.28;2.47;;;;;;;;;;5080795;28;20213;-70
2023/09/15 13:11:57;;;;;;;2.72;2.30;;;;;;;;;;5080577;28;20250;-70
2023/09/15 13:14:25;;;;;;;4.35;2.30;;;;;;;;;;5080657;28;20260;-70
2023/09/15 13:16:53;;;;;;;3.90;2.40;;;;;;;;;;5080757;28;20210;-70
2023/09/15 13:19:21;;;;;;;2.70;2.50;;;;;;;;;;5080505;28;20208;-70
2023/09/15 13:21:49;;;;;;;3.58;2.65;;;;;;;;;;5080392;28;20228;-70
2023/09/15 13:24:17;;;;;;;3.05;2.22;;;;;;;;;;5080134;28;20582;-71
2023/09/15 13:26:47;;;;;;;2.30;2.10;;;;;;;;;;5080349;28;20210;-71
2023/09/15 13:29:15;;;;;;;6.65;2.13;;;;;;;;;;5080514;28;20237;-71
2023/09/15 13:31:43;;;;;;;2.58;2.38;;;;;;;;;;5080435;28;20225;-71
2023/09/15 13:34:11;;;;;;;3.47;2.38;;;;;;;;;;5080489;28;20219;-70
2023/09/15 13:36:39;;;;;;;3.65;3.13;;;;;;;;;;5079886;28;20201;-70
2023/09/15 13:39:07;;;;;;;2.85;2.33;;;;;;;;;;5080484;28;20209;-70
2023/09/15 13:41:36;;;;;;;6.18;2.90;;;;;;;;;;5080313;28;20226;-71
2023/09/15 13:44:05;;;;;;;2.60;2.40;;;;;;;;;;5080074;28;20237;-71
2023/09/15 13:46:36;;;;;;;3.33;2.30;;;;;;;;;;5079941;28;20224;-71
2023/09/15 13:49:05;;;;;;;4.97;2.58;;;;;;;;;;5079943;28;20216;-71
2023/09/15 13:51:33;;;;;;;2.50;2.30;;;;;;;;;;5079625;28;20250;-71
2023/09/15 13:54:10;;;;;;;2.60;2.40;;;;;;;;;;5079769;28;20252;-71
2023/09/15 13:56:38;;;;;;;3.45;2.50;;;;;;;;;;5079679;28;20244;-71
2023/09/15 13:59:08;;;;;;;4.55;2.30;;;;;;;;;;5079934;28;20212;-71
2023/09/15 14:01:37;;;;;;;2.28;2.00;;;;;;;;;;5079700;28;20346;-71
2023/09/15 14:04:07;;;;;;;2.60;2.40;;;;;;;;;;5079370;28;20232;-71
2023/09/15 14:06:35;;;;;;;2.88;2.67;;;;;;;;;;5079485;28;20209;-71
2023/09/15 14:09:03;;;;;;;4.03;2.60;;;;;;;;;;5079577;28;20660;-71
2023/09/15 14:11:31;;;;;;;2.40;2.20;;;;;;;;;;5080084;28;20248;-71
2023/09/15 14:13:59;;;;;;;2.10;2.00;;;;;;;;;;5079905;28;20268;-71
2023/09/15 14:16:28;;;;;;;3.80;2.50;;;;;;;;;;5079543;28;20245;-71
2023/09/15 14:18:56;;;;;;;2.95;2.75;;;;;;;;;;5079646;28;20200;-71
2023/09/15 14:21:24;;;;;;;6.95;2.45;;;;;;;;;;5079570;28;20279;-71
2023/09/15 14:23:54;;;;;;;2.80;2.60;;;;;;;;;;5079016;28;20239;-71
2023/09/15 14:26:23;;;;;;;3.08;2.15;;;;;;;;;;5079625;28;20209;-71
2023/09/15 14:28:51;;;;;;;2.72;2.47;;;;;;;;;;5079380;28;20259;-71
2023/09/15 14:31:20;;;;;;;2.55;2.33;;;;;;;;;;5079441;28;20226;-71
2023/09/15 14:33:49;;;;;;;2.80;2.58;;;;;;;;;;5079477;28;20206;-71
2023/09/15 14:36:17;;;;;;;5.13;3.22;;;;;;;;;;5079272;28;20206;-71
2023/09/15 14:38:45;;;;;;;2.60;2.40;;;;;;;;;;5078676;28;20665;-71
2023/09/15 14:41:14;;;;;;;3.20;2.63;;;;;;;;;;5079329;28;20308;-71
2023/09/15 14:43:42;;;;;;;2.15;1.90;;;;;;;;;;5079245;28;20228;-71
2023/09/15 14:46:11;;;;;;;3.78;3.47;;;;;;;;;;5079272;28;20206;-71
2023/09/15 14:48:39;;;;;;;2.03;1.90;;;;;;;;;;5078845;28;20747;-71
2023/09/15 14:51:09;;;;;;;3.60;2.42;;;;;;;;;;5078879;28;20230;-71
2023/09/15 14:53:37;;;;;;;2.30;2.10;;;;;;;;;;5078338;28;20214;-72